sensor_id;sensor_type;location;lat;lon;timestamp;temperature;humidity
30648;DHT22;17683;53.360;9.736;2024-01-15T00:02:09;1.90;99.90
30648;DHT22;17683;53.360;9.736;2024-01-15T00:04:41;1.90;99.90
30648;DHT22;17683;53.360;9.736;2024-01-15T00:07:07;1.90;99.90
30648;DHT22;17683;53.360;9.736;2024-01-15T00:09:34;1.90;99.90
30648;DHT22;17683;53.360;9.736;2024-01-15T00:12:01;1.90;99.90
30648;DHT22;17683;53.360;9.736;2024-01-15T00:14:27;1.90;99.90
30648;DHT22;17683;53.360;9.736;2024-01-15T00:16:53;1.90;99.90
30648;DHT22;17683;53.360;9.736;2024-01-15T00:19:21;1.90;99.90
30648;DHT22;17683;53.360;9.736;2024-01-15T00:21:47;1.90;99.90
30648;DHT22;17683;53.360;9.736;2024-01-15T00:24:13;1.90;99.90
30648;DHT22;17683;53.360;9.736;2024-01-15T00:26:39;1.90;99.90
30648;DHT22;17683;53.360;9.736;2024-01-15T00:29:09;1.90;99.90
30648;DHT22;17683;53.360;9.736;2024-01-15T00:31:35;1.90;99.90
30648;DHT22;17683;53.360;9.736;2024-01-15T00:34:01;1.80;99.90
30648;DHT22;17683;53.360;9.736;2024-01-15T00:36:27;1.80;99.90
30648;DHT22;17683;53.360;9.736;2024-01-15T00:38:54;1.80;99.90
30648;DHT22;17683;53.360;9.736;2024-01-15T00:41:20;1.80;99.90
30648;DHT22;17683;53.360;9.736;2024-01-15T00:43:46;1.80;99.90
30648;DHT22;17683;53.360;9.736;2024-01-15T00:46:12;1.80;99.90
30648;DHT22;17683;53.360;9.736;2024-01-15T00:48:38;1.80;99.90
30648;DHT22;17683;53.360;9.736;2024-01-15T00:51:06;1.80;99.90
30648;DHT22;17683;53.360;9.736;2024-01-15T00:53:32;1.80;99.90
30648;DHT22;17683;53.360;9.736;2024-01-15T00:55:58;1.80;99.90
30648;DHT22;17683;53.360;9.736;2024-01-15T00:58:24;1.90;99.90
30648;DHT22;17683;53.360;9.736;2024-01-15T01:00:49;1.80;99.90
30648;DHT22;17683;53.360;9.736;2024-01-15T01:03:15;1.90;99.90
30648;DHT22;17683;53.360;9.736;2024-01-15T01:05:41;1.90;99.90
30648;DHT22;17683;53.360;9.736;2024-01-15T01:08:07;1.90;99.90
30648;DHT22;17683;53.360;9.736;2024-01-15T01:10:33;1.90;99.90
30648;DHT22;17683;53.360;9.736;2024-01-15T01:12:58;2.00;99.90
30648;DHT22;17683;53.360;9.736;2024-01-15T01:15:24;2.00;99.90
30648;DHT22;17683;53.360;9.736;2024-01-15T01:17:50;2.00;99.90
30648;DHT22;17683;53.360;9.736;2024-01-15T01:20:16;1.90;99.90
30648;DHT22;17683;53.360;9.736;2024-01-15T01:22:41;1.90;99.90
30648;DHT22;17683;53.360;9.736;2024-01-15T01:25:08;1.90;99.90
30648;DHT22;17683;53.360;9.736;2024-01-15T01:27:35;1.80;99.90
30648;DHT22;17683;53.360;9.736;2024-01-15T01:30:01;1.90;99.90
30648;DHT22;17683;53.360;9.736;2024-01-15T01:32:27;1.80;99.90
30648;DHT22;17683;53.360;9.736;2024-01-15T01:34:52;1.80;99.90
30648;DHT22;17683;53.360;9.736;2024-01-15T01:37:18;1.80;99.90
30648;DHT22;17683;53.360;9.736;2024-01-15T01:39:44;1.80;99.90
30648;DHT22;17683;53.360;9.736;2024-01-15T01:42:10;1.90;99.90
30648;DHT22;17683;53.360;9.736;2024-01-15T01:44:37;1.80;99.90
30648;DHT22;17683;53.360;9.736;2024-01-15T01:47:03;1.80;99.90
30648;DHT22;17683;53.360;9.736;2024-01-15T01:49:29;1.80;99.90
30648;DHT22;17683;53.360;9.736;2024-01-15T01:52:00;1.90;99.90
30648;DHT22;17683;53.360;9.736;2024-01-15T01:54:29;1.80;99.90
30648;DHT22;17683;53.360;9.736;2024-01-15T01:56:55;1.90;99.90
30648;DHT22;17683;53.360;9.736;2024-01-15T01:59:23;1.80;99.90
30648;DHT22;17683;53.360;9.736;2024-01-15T02:01:51;1.80;99.90
30648;DHT22;17683;53.360;9.736;2024-01-15T02:04:19;1.90;99.90
30648;DHT22;17683;53.360;9.736;2024-01-15T02:06:45;1.80;99.90
30648;DHT22;17683;53.360;9.736;2024-01-15T02:09:11;1.80;99.90
30648;DHT22;17683;53.360;9.736;2024-01-15T02:11:41;1.90;99.90
30648;DHT22;17683;53.360;9.736;2024-01-15T02:14:07;1.90;99.90
30648;DHT22;17683;53.360;9.736;2024-01-15T02:16:34;1.90;99.90
30648;DHT22;17683;53.360;9.736;2024-01-15T02:18:59;1.90;99.90
30648;DHT22;17683;53.360;9.736;2024-01-15T02:21:25;1.90;99.90
30648;DHT22;17683;53.360;9.736;2024-01-15T02:23:54;1.90;99.90
30648;DHT22;17683;53.360;9.736;2024-01-15T02:26:21;1.90;99.90
30648;DHT22;17683;53.360;9.736;2024-01-15T02:28:47;1.90;99.90
30648;DHT22;17683;53.360;9.736;2024-01-15T02:31:13;1.90;99.90
30648;DHT22;17683;53.360;9.736;2024-01-15T02:33:39;2.00;99.90
30648;DHT22;17683;53.360;9.736;2024-01-15T02:36:05;1.90;99.90
30648;DHT22;17683;53.360;9.736;2024-01-15T02:38:31;1.90;99.90
30648;DHT22;17683;53.360;9.736;2024-01-15T02:40:57;1.90;99.90
30648;DHT22;17683;53.360;9.736;2024-01-15T02:43:24;1.90;99.90
30648;DHT22;17683;53.360;9.736;2024-01-15T02:45:49;1.90;99.90
30648;DHT22;17683;53.360;9.736;2024-01-15T02:48:15;1.90;99.90
30648;DHT22;17683;53.360;9.736;2024-01-15T02:50:41;1.90;99.90
30648;DHT22;17683;53.360;9.736;2024-01-15T02:53:06;2.00;99.90
30648;DHT22;17683;53.360;9.736;2024-01-15T02:55:32;1.90;99.90
30648;DHT22;17683;53.360;9.736;2024-01-15T02:57:59;2.00;99.90
30648;DHT22;17683;53.360;9.736;2024-01-15T03:00:24;1.90;99.90
30648;DHT22;17683;53.360;9.736;2024-01-15T03:02:51;2.00;99.90
30648;DHT22;17683;53.360;9.736;2024-01-15T03:05:17;1.90;99.90
30648;DHT22;17683;53.360;9.736;2024-01-15T03:07:43;1.90;99.90
30648;DHT22;17683;53.360;9.736;2024-01-15T03:10:09;2.00;99.90
30648;DHT22;17683;53.360;9.736;2024-01-15T03:12:35;2.00;99.90
30648;DHT22;17683;53.360;9.736;2024-01-15T03:15:01;2.00;99.90
30648;DHT22;17683;53.360;9.736;2024-01-15T03:17:26;2.00;99.90
30648;DHT22;17683;53.360;9.736;2024-01-15T03:19:52;2.00;99.90
30648;DHT22;17683;53.360;9.736;2024-01-15T03:22:18;2.00;99.90
30648;DHT22;17683;53.360;9.736;2024-01-15T03:24:44;2.10;99.90
30648;DHT22;17683;53.360;9.736;2024-01-15T03:27:10;2.10;99.90
30648;DHT22;17683;53.360;9.736;2024-01-15T03:29:36;2.00;99.90
30648;DHT22;17683;53.360;9.736;2024-01-15T03:32:01;2.00;99.90
30648;DHT22;17683;53.360;9.736;2024-01-15T03:34:27;2.00;99.90
30648;DHT22;17683;53.360;9.736;2024-01-15T03:36:53;2.00;99.90
30648;DHT22;17683;53.360;9.736;2024-01-15T03:39:19;1.90;99.90
30648;DHT22;17683;53.360;9.736;2024-01-15T03:41:44;2.00;99.90
30648;DHT22;17683;53.360;9.736;2024-01-15T03:44:10;2.00;99.90
30648;DHT22;17683;53.360;9.736;2024-01-15T03:46:36;2.00;99.90
30648;DHT22;17683;53.360;9.736;2024-01-15T03:49:02;2.00;99.90
30648;DHT22;17683;53.360;9.736;2024-01-15T03:51:27;2.00;99.90
30648;DHT22;17683;53.360;9.736;2024-01-15T03:53:53;2.00;99.90
30648;DHT22;17683;53.360;9.736;2024-01-15T03:56:19;1.90;99.90
30648;DHT22;17683;53.360;9.736;2024-01-15T03:58:45;1.90;99.90
30648;DHT22;17683;53.360;9.736;2024-01-15T04:01:10;1.90;99.90
30648;DHT22;17683;53.360;9.736;2024-01-15T04:03:37;2.00;99.90
30648;DHT22;17683;53.360;9.736;2024-01-15T04:06:03;2.00;99.90
30648;DHT22;17683;53.360;9.736;2024-01-15T04:08:29;1.90;99.90
30648;DHT22;17683;53.360;9.736;2024-01-15T04:10:55;1.90;99.90
30648;DHT22;17683;53.360;9.736;2024-01-15T04:13:21;1.90;99.90
30648;DHT22;17683;53.360;9.736;2024-01-15T04:15:47;1.90;99.90
30648;DHT22;17683;53.360;9.736;2024-01-15T04:18:13;1.90;99.90
30648;DHT22;17683;53.360;9.736;2024-01-15T04:20:38;1.90;99.90
30648;DHT22;17683;53.360;9.736;2024-01-15T04:23:04;1.90;99.90
30648;DHT22;17683;53.360;9.736;2024-01-15T04:25:31;1.90;99.90
30648;DHT22;17683;53.360;9.736;2024-01-15T04:27:56;1.90;99.90
30648;DHT22;17683;53.360;9.736;2024-01-15T04:30:22;1.90;99.90
30648;DHT22;17683;53.360;9.736;2024-01-15T04:32:48;1.90;99.90
30648;DHT22;17683;53.360;9.736;2024-01-15T04:35:14;1.90;99.90
30648;DHT22;17683;53.360;9.736;2024-01-15T04:37:40;1.90;99.90
30648;DHT22;17683;53.360;9.736;2024-01-15T04:40:07;1.90;99.90
30648;DHT22;17683;53.360;9.736;2024-01-15T04:42:35;1.90;99.90
30648;DHT22;17683;53.360;9.736;2024-01-15T04:45:01;1.90;99.90
30648;DHT22;17683;53.360;9.736;2024-01-15T04:47:26;1.90;99.90
30648;DHT22;17683;53.360;9.736;2024-01-15T04:49:52;1.90;99.90
30648;DHT22;17683;53.360;9.736;2024-01-15T04:52:18;1.80;99.90
30648;DHT22;17683;53.360;9.736;2024-01-15T04:54:44;1.80;99.90
30648;DHT22;17683;53.360;9.736;2024-01-15T04:57:09;1.90;99.90
30648;DHT22;17683;53.360;9.736;2024-01-15T04:59:35;1.90;99.90
30648;DHT22;17683;53.360;9.736;2024-01-15T05:02:01;1.90;99.90
30648;DHT22;17683;53.360;9.736;2024-01-15T05:04:27;1.90;99.90
30648;DHT22;17683;53.360;9.736;2024-01-15T05:06:55;1.90;99.90
30648;DHT22;17683;53.360;9.736;2024-01-15T05:09:20;1.90;99.90
30648;DHT22;17683;53.360;9.736;2024-01-15T05:11:46;1.90;99.90
30648;DHT22;17683;53.360;9.736;2024-01-15T05:14:12;1.90;99.90
30648;DHT22;17683;53.360;9.736;2024-01-15T05:16:39;1.90;99.90
30648;DHT22;17683;53.360;9.736;2024-01-15T05:19:07;1.90;99.90
30648;DHT22;17683;53.360;9.736;2024-01-15T05:21:33;1.90;99.90
30648;DHT22;17683;53.360;9.736;2024-01-15T05:23:58;1.90;99.90
30648;DHT22;17683;53.360;9.736;2024-01-15T05:26:24;2.00;99.90
30648;DHT22;17683;53.360;9.736;2024-01-15T05:28:50;1.90;99.90
30648;DHT22;17683;53.360;9.736;2024-01-15T05:31:15;1.90;99.90
30648;DHT22;17683;53.360;9.736;2024-01-15T05:33:41;1.90;99.90
30648;DHT22;17683;53.360;9.736;2024-01-15T05:36:07;1.90;99.90
30648;DHT22;17683;53.360;9.736;2024-01-15T05:38:33;1.90;99.90
30648;DHT22;17683;53.360;9.736;2024-01-15T05:40:59;1.90;99.90
30648;DHT22;17683;53.360;9.736;2024-01-15T05:43:24;1.90;99.90
30648;DHT22;17683;53.360;9.736;2024-01-15T05:45:50;1.90;99.90
30648;DHT22;17683;53.360;9.736;2024-01-15T05:48:16;1.90;99.90
30648;DHT22;17683;53.360;9.736;2024-01-15T05:50:42;1.90;99.90
30648;DHT22;17683;53.360;9.736;2024-01-15T05:53:07;1.90;99.90
30648;DHT22;17683;53.360;9.736;2024-01-15T05:55:34;1.90;99.90
30648;DHT22;17683;53.360;9.736;2024-01-15T05:58:00;1.90;99.90
30648;DHT22;17683;53.360;9.736;2024-01-15T06:00:26;1.90;99.90
30648;DHT22;17683;53.360;9.736;2024-01-15T06:02:51;1.90;99.90
30648;DHT22;17683;53.360;9.736;2024-01-15T06:05:18;1.90;99.90
30648;DHT22;17683;53.360;9.736;2024-01-15T06:07:43;1.90;99.90
30648;DHT22;17683;53.360;9.736;2024-01-15T06:10:09;1.90;99.90
30648;DHT22;17683;53.360;9.736;2024-01-15T06:12:35;1.90;99.90
30648;DHT22;17683;53.360;9.736;2024-01-15T06:15:01;1.90;99.90
30648;DHT22;17683;53.360;9.736;2024-01-15T06:17:27;1.90;99.90
30648;DHT22;17683;53.360;9.736;2024-01-15T06:19:53;1.90;99.90
30648;DHT22;17683;53.360;9.736;2024-01-15T06:22:19;2.00;99.90
30648;DHT22;17683;53.360;9.736;2024-01-15T06:24:44;2.00;99.90
30648;DHT22;17683;53.360;9.736;2024-01-15T06:27:10;2.00;99.90
30648;DHT22;17683;53.360;9.736;2024-01-15T06:29:38;2.00;99.90
30648;DHT22;17683;53.360;9.736;2024-01-15T06:32:04;2.00;99.90
30648;DHT22;17683;53.360;9.736;2024-01-15T06:34:30;2.00;99.90
30648;DHT22;17683;53.360;9.736;2024-01-15T06:36:56;2.00;99.90
30648;DHT22;17683;53.360;9.736;2024-01-15T06:39:21;1.90;99.90
30648;DHT22;17683;53.360;9.736;2024-01-15T06:41:47;2.00;99.90
30648;DHT22;17683;53.360;9.736;2024-01-15T06:44:13;2.00;99.90
30648;DHT22;17683;53.360;9.736;2024-01-15T06:46:42;2.00;99.90
30648;DHT22;17683;53.360;9.736;2024-01-15T06:49:09;2.00;99.90
30648;DHT22;17683;53.360;9.736;2024-01-15T06:51:35;1.90;99.90
30648;DHT22;17683;53.360;9.736;2024-01-15T06:54:01;1.90;99.90
30648;DHT22;17683;53.360;9.736;2024-01-15T06:56:27;1.90;99.90
30648;DHT22;17683;53.360;9.736;2024-01-15T06:58:53;1.90;99.90
30648;DHT22;17683;53.360;9.736;2024-01-15T07:01:18;1.90;99.90
30648;DHT22;17683;53.360;9.736;2024-01-15T07:03:44;1.90;99.90
30648;DHT22;17683;53.360;9.736;2024-01-15T07:06:11;1.90;99.90
30648;DHT22;17683;53.360;9.736;2024-01-15T07:08:37;1.90;99.90
30648;DHT22;17683;53.360;9.736;2024-01-15T07:11:06;1.80;99.90
30648;DHT22;17683;53.360;9.736;2024-01-15T07:13:32;1.80;99.90
30648;DHT22;17683;53.360;9.736;2024-01-15T07:15:58;1.80;99.90
30648;DHT22;17683;53.360;9.736;2024-01-15T07:18:24;1.80;99.90
30648;DHT22;17683;53.360;9.736;2024-01-15T07:20:51;1.80;99.90
30648;DHT22;17683;53.360;9.736;2024-01-15T07:23:16;1.90;99.90
30648;DHT22;17683;53.360;9.736;2024-01-15T07:25:43;1.90;99.90
30648;DHT22;17683;53.360;9.736;2024-01-15T07:28:09;1.80;99.90
30648;DHT22;17683;53.360;9.736;2024-01-15T07:30:35;1.90;99.90
30648;DHT22;17683;53.360;9.736;2024-01-15T07:33:01;1.90;99.90
30648;DHT22;17683;53.360;9.736;2024-01-15T07:35:26;1.80;99.90
30648;DHT22;17683;53.360;9.736;2024-01-15T07:37:52;1.80;99.90
30648;DHT22;17683;53.360;9.736;2024-01-15T07:40:18;1.90;99.90
30648;DHT22;17683;53.360;9.736;2024-01-15T07:42:44;1.90;99.90
30648;DHT22;17683;53.360;9.736;2024-01-15T07:45:10;1.90;99.90
30648;DHT22;17683;53.360;9.736;2024-01-15T07:47:36;1.90;99.90
30648;DHT22;17683;53.360;9.736;2024-01-15T07:50:02;1.90;99.90
30648;DHT22;17683;53.360;9.736;2024-01-15T07:52:29;1.80;99.90
30648;DHT22;17683;53.360;9.736;2024-01-15T07:54:56;1.80;99.90
30648;DHT22;17683;53.360;9.736;2024-01-15T07:57:22;1.80;99.90
30648;DHT22;17683;53.360;9.736;2024-01-15T07:59:48;1.80;99.90
30648;DHT22;17683;53.360;9.736;2024-01-15T08:02:14;1.70;99.90
30648;DHT22;17683;53.360;9.736;2024-01-15T08:04:40;1.70;99.90
30648;DHT22;17683;53.360;9.736;2024-01-15T08:07:06;1.80;99.90
30648;DHT22;17683;53.360;9.736;2024-01-15T08:09:34;1.80;99.90
30648;DHT22;17683;53.360;9.736;2024-01-15T08:12:00;1.70;99.90
30648;DHT22;17683;53.360;9.736;2024-01-15T08:14:26;1.70;99.90
30648;DHT22;17683;53.360;9.736;2024-01-15T08:16:52;1.70;99.90
30648;DHT22;17683;53.360;9.736;2024-01-15T08:19:18;1.70;99.90
30648;DHT22;17683;53.360;9.736;2024-01-15T08:21:45;1.70;99.90
30648;DHT22;17683;53.360;9.736;2024-01-15T08:24:11;1.80;99.90
30648;DHT22;17683;53.360;9.736;2024-01-15T08:26:39;1.80;99.90
30648;DHT22;17683;53.360;9.736;2024-01-15T08:29:05;1.80;99.90
30648;DHT22;17683;53.360;9.736;2024-01-15T08:31:31;1.70;99.90
30648;DHT22;17683;53.360;9.736;2024-01-15T08:33:57;1.80;99.90
30648;DHT22;17683;53.360;9.736;2024-01-15T08:36:23;1.70;99.90
30648;DHT22;17683;53.360;9.736;2024-01-15T08:38:50;1.70;99.90
30648;DHT22;17683;53.360;9.736;2024-01-15T08:41:15;1.70;99.90
30648;DHT22;17683;53.360;9.736;2024-01-15T08:43:44;1.80;99.90
30648;DHT22;17683;53.360;9.736;2024-01-15T08:46:10;1.70;99.90
30648;DHT22;17683;53.360;9.736;2024-01-15T08:48:35;1.80;99.90
30648;DHT22;17683;53.360;9.736;2024-01-15T08:51:02;1.80;99.90
30648;DHT22;17683;53.360;9.736;2024-01-15T08:53:28;1.80;99.90
30648;DHT22;17683;53.360;9.736;2024-01-15T08:55:53;1.80;99.90
30648;DHT22;17683;53.360;9.736;2024-01-15T08:58:20;1.80;99.90
30648;DHT22;17683;53.360;9.736;2024-01-15T09:00:45;1.80;99.90
30648;DHT22;17683;53.360;9.736;2024-01-15T09:03:11;1.80;99.90
30648;DHT22;17683;53.360;9.736;2024-01-15T09:05:40;1.80;99.90
30648;DHT22;17683;53.360;9.736;2024-01-15T09:08:06;1.70;99.90
30648;DHT22;17683;53.360;9.736;2024-01-15T09:10:32;1.70;99.90
30648;DHT22;17683;53.360;9.736;2024-01-15T09:12:57;1.70;99.90
30648;DHT22;17683;53.360;9.736;2024-01-15T09:15:24;1.70;99.90
30648;DHT22;17683;53.360;9.736;2024-01-15T09:17:49;1.70;99.90
30648;DHT22;17683;53.360;9.736;2024-01-15T09:20:15;1.70;99.90
30648;DHT22;17683;53.360;9.736;2024-01-15T09:22:41;1.70;99.90
30648;DHT22;17683;53.360;9.736;2024-01-15T09:25:08;1.80;99.90
30648;DHT22;17683;53.360;9.736;2024-01-15T09:27:37;1.80;99.90
30648;DHT22;17683;53.360;9.736;2024-01-15T09:30:04;1.90;99.90
30648;DHT22;17683;53.360;9.736;2024-01-15T09:32:30;2.00;99.90
30648;DHT22;17683;53.360;9.736;2024-01-15T09:34:56;1.90;99.90
30648;DHT22;17683;53.360;9.736;2024-01-15T09:37:22;2.00;99.90
30648;DHT22;17683;53.360;9.736;2024-01-15T09:39:49;2.00;99.90
30648;DHT22;17683;53.360;9.736;2024-01-15T09:42:18;2.00;99.90
30648;DHT22;17683;53.360;9.736;2024-01-15T09:44:45;2.00;99.90
30648;DHT22;17683;53.360;9.736;2024-01-15T09:47:12;2.00;99.90
30648;DHT22;17683;53.360;9.736;2024-01-15T09:49:38;2.00;99.90
30648;DHT22;17683;53.360;9.736;2024-01-15T09:52:07;2.00;99.90
30648;DHT22;17683;53.360;9.736;2024-01-15T09:54:33;2.00;99.90
30648;DHT22;17683;53.360;9.736;2024-01-15T09:57:03;1.90;99.90
30648;DHT22;17683;53.360;9.736;2024-01-15T09:59:30;1.90;99.90
30648;DHT22;17683;53.360;9.736;2024-01-15T10:01:57;1.80;99.90
30648;DHT22;17683;53.360;9.736;2024-01-15T10:04:24;1.80;99.90
30648;DHT22;17683;53.360;9.736;2024-01-15T10:06:51;1.80;99.90
30648;DHT22;17683;53.360;9.736;2024-01-15T10:09:18;1.80;99.90
30648;DHT22;17683;53.360;9.736;2024-01-15T10:11:44;1.80;99.90
30648;DHT22;17683;53.360;9.736;2024-01-15T10:14:11;1.80;99.90
30648;DHT22;17683;53.360;9.736;2024-01-15T10:16:41;1.80;99.90
30648;DHT22;17683;53.360;9.736;2024-01-15T10:19:10;1.80;99.90
30648;DHT22;17683;53.360;9.736;2024-01-15T10:21:37;1.80;99.90
30648;DHT22;17683;53.360;9.736;2024-01-15T10:24:05;1.80;99.90
30648;DHT22;17683;53.360;9.736;2024-01-15T10:26:32;1.80;99.90
30648;DHT22;17683;53.360;9.736;2024-01-15T10:29:01;1.70;99.90
30648;DHT22;17683;53.360;9.736;2024-01-15T10:31:27;1.80;99.90
30648;DHT22;17683;53.360;9.736;2024-01-15T10:33:55;1.80;99.90
30648;DHT22;17683;53.360;9.736;2024-01-15T10:36:45;1.80;99.90
30648;DHT22;17683;53.360;9.736;2024-01-15T10:39:13;1.90;99.90
30648;DHT22;17683;53.360;9.736;2024-01-15T10:41:42;1.90;99.90
30648;DHT22;17683;53.360;9.736;2024-01-15T10:44:08;1.90;99.90
30648;DHT22;17683;53.360;9.736;2024-01-15T10:46:34;2.00;99.90
30648;DHT22;17683;53.360;9.736;2024-01-15T10:49:01;2.10;99.90
30648;DHT22;17683;53.360;9.736;2024-01-15T10:51:27;2.10;99.90
30648;DHT22;17683;53.360;9.736;2024-01-15T10:53:55;2.20;99.90
30648;DHT22;17683;53.360;9.736;2024-01-15T10:56:22;2.20;99.90
30648;DHT22;17683;53.360;9.736;2024-01-15T10:58:50;2.30;99.90
30648;DHT22;17683;53.360;9.736;2024-01-15T11:01:16;2.40;99.90
30648;DHT22;17683;53.360;9.736;2024-01-15T11:03:43;2.50;99.90
30648;DHT22;17683;53.360;9.736;2024-01-15T11:06:19;2.50;99.90
30648;DHT22;17683;53.360;9.736;2024-01-15T11:08:49;2.50;99.90
30648;DHT22;17683;53.360;9.736;2024-01-15T11:11:16;2.50;99.90
30648;DHT22;17683;53.360;9.736;2024-01-15T11:13:43;2.50;99.90
30648;DHT22;17683;53.360;9.736;2024-01-15T11:16:13;2.50;99.90
30648;DHT22;17683;53.360;9.736;2024-01-15T11:21:25;2.50;99.90
30648;DHT22;17683;53.360;9.736;2024-01-15T11:23:58;2.50;99.90
30648;DHT22;17683;53.360;9.736;2024-01-15T11:26:37;2.50;99.90
30648;DHT22;17683;53.360;9.736;2024-01-15T11:29:04;2.40;99.90
30648;DHT22;17683;53.360;9.736;2024-01-15T11:34:16;2.40;99.90
30648;DHT22;17683;53.360;9.736;2024-01-15T11:39:41;2.30;99.90
30648;DHT22;17683;53.360;9.736;2024-01-15T11:42:10;2.20;99.90
30648;DHT22;17683;53.360;9.736;2024-01-15T11:44:40;2.10;99.90
30648;DHT22;17683;53.360;9.736;2024-01-15T11:47:07;2.10;99.90
30648;DHT22;17683;53.360;9.736;2024-01-15T11:52:05;2.00;99.90
30648;DHT22;17683;53.360;9.736;2024-01-15T11:54:35;2.00;99.90
30648;DHT22;17683;53.360;9.736;2024-01-15T11:57:07;1.90;99.90
30648;DHT22;17683;53.360;9.736;2024-01-15T11:59:35;1.90;99.90
30648;DHT22;17683;53.360;9.736;2024-01-15T12:02:02;2.00;99.90
30648;DHT22;17683;53.360;9.736;2024-01-15T12:04:28;2.00;99.90
30648;DHT22;17683;53.360;9.736;2024-01-15T12:06:54;2.00;99.90
30648;DHT22;17683;53.360;9.736;2024-01-15T12:09:19;2.00;99.90
30648;DHT22;17683;53.360;9.736;2024-01-15T12:11:53;2.00;99.90
30648;DHT22;17683;53.360;9.736;2024-01-15T12:14:21;2.10;99.90
30648;DHT22;17683;53.360;9.736;2024-01-15T12:16:48;2.00;99.90
30648;DHT22;17683;53.360;9.736;2024-01-15T12:19:15;2.10;99.90
30648;DHT22;17683;53.360;9.736;2024-01-15T12:21:41;2.10;99.90
30648;DHT22;17683;53.360;9.736;2024-01-15T12:24:10;2.10;99.90
30648;DHT22;17683;53.360;9.736;2024-01-15T12:26:35;2.10;99.90
30648;DHT22;17683;53.360;9.736;2024-01-15T12:29:02;2.00;99.90
30648;DHT22;17683;53.360;9.736;2024-01-15T12:31:29;2.00;99.90
30648;DHT22;17683;53.360;9.736;2024-01-15T12:33:56;2.00;99.90
30648;DHT22;17683;53.360;9.736;2024-01-15T12:36:22;2.00;99.90
30648;DHT22;17683;53.360;9.736;2024-01-15T12:38:47;2.00;99.90
30648;DHT22;17683;53.360;9.736;2024-01-15T12:41:14;2.00;99.90
30648;DHT22;17683;53.360;9.736;2024-01-15T12:43:40;2.00;99.90
30648;DHT22;17683;53.360;9.736;2024-01-15T12:46:06;2.10;99.90
30648;DHT22;17683;53.360;9.736;2024-01-15T12:48:32;2.10;99.90
30648;DHT22;17683;53.360;9.736;2024-01-15T12:50:57;2.10;99.90
30648;DHT22;17683;53.360;9.736;2024-01-15T12:53:23;2.00;99.90
30648;DHT22;17683;53.360;9.736;2024-01-15T12:55:49;2.10;99.90
30648;DHT22;17683;53.360;9.736;2024-01-15T12:58:14;2.10;99.90
30648;DHT22;17683;53.360;9.736;2024-01-15T13:00:40;2.10;99.90
30648;DHT22;17683;53.360;9.736;2024-01-15T13:03:07;2.00;99.90
30648;DHT22;17683;53.360;9.736;2024-01-15T13:05:32;2.00;99.90
30648;DHT22;17683;53.360;9.736;2024-01-15T13:07:59;2.00;99.90
30648;DHT22;17683;53.360;9.736;2024-01-15T13:10:25;2.00;99.90
30648;DHT22;17683;53.360;9.736;2024-01-15T13:12:51;2.00;99.90
30648;DHT22;17683;53.360;9.736;2024-01-15T13:15:17;2.00;99.90
30648;DHT22;17683;53.360;9.736;2024-01-15T13:17:43;1.90;99.90
30648;DHT22;17683;53.360;9.736;2024-01-15T13:20:09;1.90;99.90
30648;DHT22;17683;53.360;9.736;2024-01-15T13:22:37;1.90;99.90
30648;DHT22;17683;53.360;9.736;2024-01-15T13:25:05;1.90;99.90
30648;DHT22;17683;53.360;9.736;2024-01-15T13:27:33;1.80;99.90
30648;DHT22;17683;53.360;9.736;2024-01-15T13:30:02;1.80;99.90
30648;DHT22;17683;53.360;9.736;2024-01-15T13:32:28;1.80;99.90
30648;DHT22;17683;53.360;9.736;2024-01-15T13:34:55;1.80;99.90
30648;DHT22;17683;53.360;9.736;2024-01-15T13:37:22;1.90;99.90
30648;DHT22;17683;53.360;9.736;2024-01-15T13:39:50;1.90;99.90
30648;DHT22;17683;53.360;9.736;2024-01-15T13:42:17;1.90;99.90
30648;DHT22;17683;53.360;9.736;2024-01-15T13:44:43;1.90;99.90
30648;DHT22;17683;53.360;9.736;2024-01-15T13:47:09;2.00;99.90
30648;DHT22;17683;53.360;9.736;2024-01-15T13:49:36;1.90;99.90
30648;DHT22;17683;53.360;9.736;2024-01-15T13:52:03;1.90;99.90
30648;DHT22;17683;53.360;9.736;2024-01-15T13:54:29;2.00;99.90
30648;DHT22;17683;53.360;9.736;2024-01-15T13:56:56;2.00;99.90
30648;DHT22;17683;53.360;9.736;2024-01-15T13:59:22;1.90;99.90
30648;DHT22;17683;53.360;9.736;2024-01-15T14:01:48;2.00;99.90
30648;DHT22;17683;53.360;9.736;2024-01-15T14:04:14;1.90;99.90
30648;DHT22;17683;53.360;9.736;2024-01-15T14:06:40;1.90;99.90
30648;DHT22;17683;53.360;9.736;2024-01-15T14:09:06;1.90;99.90
30648;DHT22;17683;53.360;9.736;2024-01-15T14:11:38;1.90;99.90
30648;DHT22;17683;53.360;9.736;2024-01-15T14:14:04;1.90;99.90
30648;DHT22;17683;53.360;9.736;2024-01-15T14:16:30;2.00;99.90
30648;DHT22;17683;53.360;9.736;2024-01-15T14:18:57;1.90;99.90
30648;DHT22;17683;53.360;9.736;2024-01-15T14:21:23;1.90;99.90
30648;DHT22;17683;53.360;9.736;2024-01-15T14:23:49;1.90;99.90
30648;DHT22;17683;53.360;9.736;2024-01-15T14:26:15;1.90;99.90
30648;DHT22;17683;53.360;9.736;2024-01-15T14:28:41;1.90;99.90
30648;DHT22;17683;53.360;9.736;2024-01-15T14:31:07;1.90;99.90
30648;DHT22;17683;53.360;9.736;2024-01-15T14:33:33;1.90;99.90
30648;DHT22;17683;53.360;9.736;2024-01-15T14:35:58;1.90;99.90
30648;DHT22;17683;53.360;9.736;2024-01-15T14:38:24;1.90;99.90
30648;DHT22;17683;53.360;9.736;2024-01-15T14:40:50;1.90;99.90
30648;DHT22;17683;53.360;9.736;2024-01-15T14:43:16;1.90;99.90
30648;DHT22;17683;53.360;9.736;2024-01-15T14:45:41;1.90;99.90
30648;DHT22;17683;53.360;9.736;2024-01-15T14:48:07;1.90;99.90
30648;DHT22;17683;53.360;9.736;2024-01-15T14:50:33;1.90;99.90
30648;DHT22;17683;53.360;9.736;2024-01-15T14:52:58;1.90;99.90
30648;DHT22;17683;53.360;9.736;2024-01-15T14:55:24;1.90;99.90
30648;DHT22;17683;53.360;9.736;2024-01-15T14:57:51;1.80;99.90
30648;DHT22;17683;53.360;9.736;2024-01-15T15:00:18;1.80;99.90
30648;DHT22;17683;53.360;9.736;2024-01-15T15:02:44;1.80;99.90
30648;DHT22;17683;53.360;9.736;2024-01-15T15:05:10;1.80;99.90
30648;DHT22;17683;53.360;9.736;2024-01-15T15:07:36;1.80;99.90
30648;DHT22;17683;53.360;9.736;2024-01-15T15:10:03;1.80;99.90
30648;DHT22;17683;53.360;9.736;2024-01-15T15:12:30;1.80;99.90
30648;DHT22;17683;53.360;9.736;2024-01-15T15:14:56;1.80;99.90
30648;DHT22;17683;53.360;9.736;2024-01-15T15:17:22;1.80;99.90
30648;DHT22;17683;53.360;9.736;2024-01-15T15:19:47;1.70;99.90
30648;DHT22;17683;53.360;9.736;2024-01-15T15:22:14;1.70;99.90
30648;DHT22;17683;53.360;9.736;2024-01-15T15:24:40;1.70;99.90
30648;DHT22;17683;53.360;9.736;2024-01-15T15:27:06;1.70;99.90
30648;DHT22;17683;53.360;9.736;2024-01-15T15:29:33;1.70;99.90
30648;DHT22;17683;53.360;9.736;2024-01-15T15:32:00;1.70;99.90
30648;DHT22;17683;53.360;9.736;2024-01-15T15:34:27;1.70;99.90
30648;DHT22;17683;53.360;9.736;2024-01-15T15:36:52;1.70;99.90
30648;DHT22;17683;53.360;9.736;2024-01-15T15:39:18;1.70;99.90
30648;DHT22;17683;53.360;9.736;2024-01-15T15:41:44;1.70;99.90
30648;DHT22;17683;53.360;9.736;2024-01-15T15:44:10;1.70;99.90
30648;DHT22;17683;53.360;9.736;2024-01-15T15:46:38;1.70;99.90
30648;DHT22;17683;53.360;9.736;2024-01-15T15:49:04;1.60;99.90
30648;DHT22;17683;53.360;9.736;2024-01-15T15:51:35;1.70;99.90